Time;durP1;ratioP1;P1;durP2;ratioP2;P2;SDS_P1;SDS_P2;PMS_P1;PMS_P2;Temp;Humidity;BMP_temperature;BMP_pressure;BME280_temperature;BME280_humidity;BME280_pressure;Samples;Min_cycle;Max_cycle;Signal;HPM_P1;HPM_P2
2022/04/27 00:01:47;;;;;;;3.42;2.35;;;12.90;99.90;;;;;;1905523;74;21055;-86
2022/04/27 00:04:39;;;;;;;3.45;2.47;;;13.00;99.90;;;;;;1928184;74;21135;-85
2022/04/27 00:10:11;;;;;;;6.60;2.80;;;12.90;99.90;;;;;;1939863;72;22617;-85
2022/04/27 00:13:21;;;;;;;5.35;2.70;;;12.90;99.90;;;;;;1898723;75;21035;-87
2022/04/27 00:16:31;;;;;;;3.35;2.70;;;12.90;99.90;;;;;;1897908;75;21084;-86
2022/04/27 00:19:24;;;;;;;3.95;2.83;;;12.90;99.90;;;;;;1907181;75;21047;-86
2022/04/27 00:25:16;;;;;;;4.90;2.85;;;12.80;99.90;;;;;;1935452;72;22217;-85
2022/04/27 00:28:26;;;;;;;3.30;2.77;;;12.90;99.90;;;;;;1893419;74;21136;-86
2022/04/27 00:31:36;;;;;;;5.10;3.00;;;12.80;99.90;;;;;;1903775;74;21032;-86
2022/04/27 00:37:07;;;;;;;3.87;2.60;;;12.70;99.90;;;;;;1941899;72;22201;-85
2022/04/27 00:40:17;;;;;;;4.70;2.92;;;12.70;99.90;;;;;;1914029;75;21167;-85
2022/04/27 00:43:39;;;;;;;4.03;2.62;;;12.60;99.90;;;;;;1907721;75;21540;-85
2022/04/27 00:46:30;;;;;;;4.00;2.60;;;12.50;99.90;;;;;;1909443;75;21047;-86
2022/04/27 00:49:44;;;;;;;3.55;2.52;;;12.50;99.90;;;;;;1909070;75;21036;-86
2022/04/27 00:52:37;;;;;;;3.27;2.70;;;12.40;99.90;;;;;;1902389;75;21102;-85
2022/04/27 00:55:30;;;;;;;4.20;2.55;;;12.40;99.90;;;;;;1897201;75;21137;-85
2022/04/27 00:58:24;;;;;;;3.47;2.60;;;12.40;99.90;;;;;;1904067;75;21087;-84
2022/04/27 01:01:17;;;;;;;3.70;3.00;;;12.40;99.90;;;;;;1900624;75;21128;-85
2022/04/27 01:04:10;;;;;;;3.15;2.75;;;12.30;99.90;;;;;;1916630;75;21173;-84
2022/04/27 01:07:02;;;;;;;3.58;2.70;;;12.30;99.90;;;;;;1886397;75;21081;-85
2022/04/27 01:09:55;;;;;;;2.62;2.40;;;12.30;99.90;;;;;;1916303;75;21137;-86
2022/04/27 01:12:47;;;;;;;4.62;2.67;;;12.30;99.90;;;;;;1916218;75;21051;-86
2022/04/27 01:15:40;;;;;;;3.37;2.67;;;12.20;99.90;;;;;;1916486;75;21079;-85
2022/04/27 08:15:49;;;;;;;4.55;3.08;;;13.90;99.90;;;;;;1934902;72;22134;-82
2022/04/27 08:19:00;;;;;;;4.90;2.92;;;14.00;99.90;;;;;;1910516;75;21076;-82
2022/04/27 08:22:11;;;;;;;5.08;3.45;;;14.10;99.90;;;;;;1908664;75;21098;-81
2022/04/27 08:27:40;;;;;;;3.72;3.35;;;14.30;99.90;;;;;;1944075;72;22178;-81
2022/04/27 08:30:51;;;;;;;3.67;3.25;;;14.30;99.90;;;;;;1906916;75;21529;-81
2022/04/27 08:34:01;;;;;;;6.60;3.27;;;14.40;99.90;;;;;;1906812;75;21051;-82
2022/04/27 08:39:36;;;;;;;4.35;3.12;;;14.50;99.90;;;;;;1951796;72;22219;-83
2022/04/27 08:45:26;;;;;;;5.40;3.55;;;14.60;99.90;;;;;;1935659;72;22236;-83
2022/04/27 08:51:18;;;;;;;5.75;3.50;;;14.80;99.90;;;;;;1949092;72;22188;-82
2022/04/27 08:54:28;;;;;;;5.97;3.45;;;14.90;99.90;;;;;;1906149;75;21038;-82
2022/04/27 09:00:19;;;;;;;7.20;3.30;;;15.00;99.90;;;;;;1955767;72;22138;-79
2022/04/27 09:03:31;;;;;;;4.90;3.08;;;15.10;99.90;;;;;;1903305;75;21079;-79
2022/04/27 09:06:42;;;;;;;8.20;3.70;;;15.20;99.90;;;;;;1884984;75;21529;-79
2022/04/27 09:12:16;;;;;;;4.08;2.87;;;15.40;99.90;;;;;;1933554;72;22134;-78
2022/04/27 09:21:53;;;;;;;;;;;15.70;99.90;;;;;;1921045;73;21046;-79
2022/04/27 09:24:52;;;;;;;5.25;3.17;;;15.70;99.90;;;;;;1921292;73;20217;-79
2022/04/27 09:27:43;;;;;;;5.50;3.52;;;15.80;99.90;;;;;;1917610;75;21579;-79
2022/04/27 09:30:35;;;;;;;8.95;3.40;;;15.90;99.90;;;;;;1906546;75;21120;-79
2022/04/27 09:33:34;;;;;;;4.97;3.40;;;16.00;99.90;;;;;;1933158;73;21066;-80
2022/04/27 09:36:26;;;;;;;5.87;2.72;;;16.20;99.90;;;;;;1920844;73;21075;-78
2022/04/27 09:39:24;;;;;;;4.78;3.25;;;16.20;99.90;;;;;;1927514;73;21040;-78
2022/04/27 09:42:16;;;;;;;5.53;2.77;;;16.20;99.90;;;;;;1917804;75;21092;-78
2022/04/27 09:56:24;;;;;;;5.03;3.00;;;16.60;99.90;;;;;;1930113;73;21180;-79
2022/04/27 10:01:58;;;;;;;4.58;2.62;;;16.80;99.90;;;;;;1946498;72;22310;-78
2022/04/27 10:05:10;;;;;;;4.47;2.50;;;16.90;99.90;;;;;;1933694;73;21316;-81
2022/04/27 10:08:23;;;;;;;3.77;2.60;;;16.90;99.90;;;;;;1922473;73;21051;-79
2022/04/27 10:14:00;;;;;;;3.58;2.90;;;16.90;99.90;;;;;;1944105;72;22176;-78
2022/04/27 10:17:11;;;;;;;5.67;2.80;;;17.00;99.90;;;;;;1884561;75;21482;-80
2022/04/27 10:20:35;;;;;;;5.72;2.30;;;17.10;99.90;;;;;;1902756;75;21090;-80
2022/04/27 10:23:31;;;;;;;6.28;2.83;;;17.20;99.90;;;;;;1895376;75;21089;-79
2022/04/27 10:26:40;;;;;;;4.78;2.60;;;17.30;99.90;;;;;;1893955;75;21102;-79
2022/04/27 10:29:31;;;;;;;5.42;4.05;;;17.40;99.90;;;;;;1894830;75;21146;-79
2022/04/27 10:35:29;;;;;;;5.53;3.05;;;17.40;99.90;;;;;;1948705;72;22241;-79
2022/04/27 10:38:41;;;;;;;3.52;2.55;;;17.60;99.90;;;;;;1894835;75;21066;-79
2022/04/27 10:41:56;;;;;;;2.62;1.98;;;17.70;99.90;;;;;;1886550;75;21019;-79
2022/04/27 10:48:07;;;;;;;2.62;2.35;;;17.70;99.90;;;;;;1950215;72;22628;-78
2022/04/27 10:51:17;;;;;;;2.65;2.22;;;17.60;99.90;;;;;;1889872;75;21070;-78
2022/04/27 10:54:29;;;;;;;5.15;2.20;;;17.70;99.90;;;;;;1892634;75;21085;-78
2022/04/27 11:00:30;;;;;;;3.00;2.20;;;17.60;99.90;;;;;;1948394;72;22147;-78
2022/04/27 11:03:42;;;;;;;2.85;2.20;;;17.70;99.90;;;;;;1906733;75;21058;-79
2022/04/27 11:07:29;;;;;;;2.75;2.20;;;17.80;99.90;;;;;;1900608;75;21542;-79
2022/04/27 11:10:22;;;;;;;2.15;1.90;;;17.80;99.90;;;;;;1913953;75;21152;-80
2022/04/27 11:16:13;;;;;;;2.45;2.25;;;18.00;99.90;;;;;;1956763;72;22493;-78
2022/04/27 11:22:18;;;;;;;3.50;1.90;;;18.20;99.90;;;;;;1932219;72;22201;-78
2022/04/27 11:25:31;;;;;;;2.80;2.02;;;18.40;99.90;;;;;;1903090;75;21129;-79
2022/04/27 11:28:42;;;;;;;3.92;2.10;;;18.50;99.90;;;;;;1909089;75;21051;-79
2022/04/27 11:31:34;;;;;;;3.30;2.30;;;18.30;99.90;;;;;;1897036;75;21608;-79
2022/04/27 11:37:23;;;;;;;4.37;1.95;;;18.40;99.90;;;;;;1973678;72;22377;-78
2022/04/27 11:40:37;;;;;;;2.30;1.95;;;18.50;99.90;;;;;;1962471;72;21063;-80
2022/04/27 11:43:49;;;;;;;2.40;1.62;;;18.50;99.90;;;;;;1951203;73;21047;-78
2022/04/27 11:46:40;;;;;;;5.15;2.60;;;18.50;99.90;;;;;;1951270;73;21169;-79
2022/04/27 11:49:56;;;;;;;3.35;2.20;;;18.50;99.90;;;;;;1951253;73;21506;-79
2022/04/27 11:52:56;;;;;;;4.12;2.55;;;18.60;99.90;;;;;;1959845;71;21097;-78
2022/04/27 11:55:52;;;;;;;3.00;2.05;;;18.80;99.90;;;;;;1951380;71;21125;-81
2022/04/27 11:58:45;;;;;;;5.08;2.67;;;19.00;99.90;;;;;;1951249;73;21089;-82
2022/04/27 12:01:36;;;;;;;3.25;2.30;;;19.10;99.90;;;;;;1951233;73;21074;-82
2022/04/27 12:07:13;;;;;;;4.35;1.85;;;19.20;99.90;;;;;;1943444;72;22557;-80
2022/04/27 12:10:23;;;;;;;3.00;1.87;;;19.40;99.90;;;;;;1895163;75;21042;-81
2022/04/27 12:16:12;;;;;;;2.60;2.05;;;19.50;99.90;;;;;;1950214;72;22560;-81
2022/04/27 12:19:30;;;;;;;3.10;2.33;;;19.40;99.90;;;;;;1928642;73;21130;-82
2022/04/27 12:25:38;;;;;;;4.12;2.22;;;19.60;99.90;;;;;;1919794;72;28074;-81
2022/04/27 12:31:32;;;;;;;3.87;2.60;;;19.80;99.90;;;;;;1944195;72;22157;-83
2022/04/27 12:40:55;;;;;;;2.35;2.12;;;20.00;99.90;;;;;;1932096;72;22247;-83
2022/04/27 12:44:06;;;;;;;3.45;1.98;;;20.00;99.90;;;;;;1906203;74;21043;-82
2022/04/27 12:47:19;;;;;;;2.80;1.90;;;20.00;99.90;;;;;;1912001;75;21112;-79
2022/04/27 12:50:11;;;;;;;3.67;2.05;;;20.20;99.90;;;;;;1888525;75;21109;-80
2022/04/27 12:53:22;;;;;;;2.58;2.02;;;20.50;99.90;;;;;;1896285;75;21091;-82
2022/04/27 12:56:19;;;;;;;2.75;2.25;;;20.60;99.90;;;;;;1899594;75;21059;-81
2022/04/27 12:59:10;;;;;;;2.72;1.90;;;20.50;99.90;;;;;;1894925;75;21116;-82
2022/04/27 13:02:06;;;;;;;5.95;1.80;;;20.60;99.90;;;;;;1916649;75;21470;-82
2022/04/27 13:04:57;;;;;;;2.37;1.90;;;20.70;99.90;;;;;;1891881;75;21126;-79
2022/04/27 13:07:49;;;;;;;3.12;2.20;;;20.70;99.90;;;;;;1898642;75;21137;-79
2022/04/27 13:13:55;;;;;;;2.10;1.85;;;20.70;99.90;;;;;;1904509;75;21056;-82
2022/04/27 13:16:47;;;;;;;2.77;1.50;;;20.80;99.90;;;;;;1895750;75;21083;-82
2022/04/27 13:19:38;;;;;;;2.65;1.50;;;20.70;99.90;;;;;;1917374;75;21129;-82
2022/04/27 13:22:32;;;;;;;2.40;1.50;;;20.80;99.90;;;;;;1899000;75;21059;-82
2022/04/27 13:25:26;;;;;;;3.35;1.80;;;21.00;99.90;;;;;;1909839;75;21156;-82
2022/04/27 13:28:22;;;;;;;1.90;1.70;;;21.00;99.90;;;;;;1898444;75;21047;-82
2022/04/27 13:31:14;;;;;;;3.22;1.52;;;21.00;99.90;;;;;;1906465;75;21486;-82
2022/04/27 13:34:06;;;;;;;2.92;1.70;;;21.00;99.90;;;;;;1904150;75;21660;-82
2022/04/27 13:36:59;;;;;;;2.72;1.80;;;21.20;99.50;;;;;;1895660;75;21094;-82
2022/04/27 13:39:50;;;;;;;3.92;1.90;;;21.20;99.90;;;;;;1898407;74;21129;-83
2022/04/27 13:45:22;;;;;;;2.52;1.45;;;21.30;99.90;;;;;;1930687;72;22235;-83
2022/04/27 13:48:31;;;;;;;2.25;1.52;;;21.50;98.30;;;;;;1893651;75;21114;-82
2022/04/27 13:51:41;;;;;;;2.33;1.90;;;21.60;99.80;;;;;;1908138;73;21100;-82
2022/04/27 13:54:33;;;;;;;2.85;1.95;;;21.70;99.20;;;;;;1911434;74;21137;-82
2022/04/27 13:57:43;;;;;;;3.45;1.85;;;21.70;99.90;;;;;;1886086;75;21029;-82
2022/04/27 14:00:35;;;;;;;2.05;1.45;;;22.20;99.80;;;;;;1902215;74;21168;-81
2022/04/27 14:06:08;;;;;;;3.70;2.02;;;22.80;96.00;;;;;;1947634;72;22210;-82
2022/04/27 14:09:18;;;;;;;2.75;1.70;;;23.10;97.20;;;;;;1915868;73;21115;-82
2022/04/27 14:15:39;;;;;;;3.10;1.80;;;23.80;96.90;;;;;;1904954;75;21109;-81
2022/04/27 14:18:49;;;;;;;3.45;1.62;;;24.00;95.70;;;;;;1899689;75;21093;-82
2022/04/27 14:21:40;;;;;;;2.95;1.77;;;24.00;94.40;;;;;;1892551;75;21158;-82
2022/04/27 14:27:15;;;;;;;3.22;1.60;;;24.30;93.20;;;;;;1955310;72;22228;-81
2022/04/27 14:30:24;;;;;;;2.40;2.17;;;24.30;93.10;;;;;;1903910;75;21197;-82
2022/04/27 14:33:34;;;;;;;2.65;1.72;;;24.50;92.60;;;;;;1887646;73;21102;-80
2022/04/27 14:36:27;;;;;;;1.87;1.52;;;24.50;91.70;;;;;;1902797;73;21091;-81
2022/04/27 14:39:38;;;;;;;2.83;1.60;;;24.50;90.70;;;;;;1913885;75;21136;-80
2022/04/27 14:42:31;;;;;;;2.77;1.42;;;24.70;90.80;;;;;;1916577;75;21117;-81
2022/04/27 14:45:22;;;;;;;2.35;1.77;;;25.10;91.10;;;;;;1900256;75;21152;-81
2022/04/27 14:48:15;;;;;;;3.05;1.80;;;25.10;91.20;;;;;;1896404;75;21095;-81
2022/04/27 14:51:07;;;;;;;3.50;1.65;;;24.90;89.50;;;;;;1891171;75;21172;-81
2022/04/27 14:53:59;;;;;;;3.15;1.98;;;25.10;90.20;;;;;;1895275;75;21125;-81
2022/04/27 14:56:51;;;;;;;2.40;1.60;;;25.20;89.10;;;;;;1909353;75;21043;-81
2022/04/27 14:59:43;;;;;;;1.62;1.52;;;25.30;89.30;;;;;;1912134;75;21146;-81
2022/04/27 15:02:37;;;;;;;3.52;1.60;;;25.30;86.90;;;;;;1900895;74;21071;-80
2022/04/27 15:05:30;;;;;;;2.67;1.50;;;25.30;86.10;;;;;;1908929;75;21590;-80
2022/04/27 15:08:21;;;;;;;2.83;1.40;;;25.60;86.00;;;;;;1907501;75;22266;-81
2022/04/27 15:11:14;;;;;;;2.20;1.70;;;25.40;84.10;;;;;;1910704;75;21118;-80
2022/04/27 15:14:05;;;;;;;6.47;1.92;;;25.70;85.00;;;;;;1903688;75;21078;-80
2022/04/27 15:16:58;;;;;;;3.27;1.60;;;25.90;84.10;;;;;;1913920;75;21130;-80
2022/04/27 15:25:39;;;;;;;2.70;1.50;;;26.20;81.20;;;;;;1947925;72;22149;-81
2022/04/27 15:28:49;;;;;;;1.85;1.50;;;26.20;80.40;;;;;;1918967;73;21039;-80
2022/04/27 15:32:01;;;;;;;3.67;1.47;;;26.30;79.90;;;;;;1940279;73;21157;-80
2022/04/27 15:34:52;;;;;;;1.98;1.57;;;26.20;78.90;;;;;;1920074;73;21094;-80
2022/04/27 15:40:41;;;;;;;2.08;1.55;;;26.50;78.50;;;;;;1956580;72;22095;-80
2022/04/27 15:46:30;;;;;;;2.83;1.30;;;26.50;77.10;;;;;;1925622;72;22240;-81
2022/04/27 15:49:41;;;;;;;2.02;1.60;;;26.60;76.90;;;;;;1906061;75;21150;-80
2022/04/27 15:55:30;;;;;;;3.15;1.77;;;26.30;74.80;;;;;;1935245;72;22149;-79
2022/04/27 16:01:19;;;;;;;2.25;1.27;;;26.30;73.30;;;;;;1958263;72;22303;-80
2022/04/27 16:07:08;;;;;;;2.87;1.50;;;26.50;71.70;;;;;;1938609;72;22255;-80
2022/04/27 16:10:18;;;;;;;1.57;1.35;;;26.40;71.10;;;;;;1893529;75;21491;-79
2022/04/27 16:13:29;;;;;;;2.20;1.27;;;26.50;71.60;;;;;;1893954;75;21029;-80
2022/04/27 16:16:25;;;;;;;3.12;1.50;;;26.20;70.50;;;;;;1905358;75;21075;-80
2022/04/27 16:19:39;;;;;;;2.90;1.30;;;26.40;69.50;;;;;;1886353;75;21082;-80
2022/04/27 16:25:42;;;;;;;1.80;1.20;;;26.10;67.70;;;;;;1904178;75;21549;-80
2022/04/27 16:31:18;;;;;;;2.10;1.37;;;26.30;67.60;;;;;;1947709;72;22149;-80
2022/04/27 16:34:30;;;;;;;1.82;1.40;;;26.60;67.40;;;;;;1929037;73;21496;-81
2022/04/27 16:40:35;;;;;;;2.30;1.72;;;26.60;64.90;;;;;;1951232;72;22133;-80
2022/04/27 16:43:53;;;;;;;2.08;1.12;;;26.20;65.60;;;;;;1931743;73;21032;-80
2022/04/27 16:50:01;;;;;;;2.22;1.40;;;25.70;64.10;;;;;;1926607;72;22221;-79
2022/04/27 16:53:26;;;;;;;2.85;1.17;;;26.30;64.40;;;;;;1895878;75;21058;-80
2022/04/27 16:56:39;;;;;;;2.98;1.37;;;26.20;62.90;;;;;;1901426;74;21038;-80
2022/04/27 16:59:38;;;;;;;2.37;1.10;;;26.30;63.40;;;;;;1906833;74;21160;-79
2022/04/27 17:02:55;;;;;;;1.37;1.27;;;26.10;62.70;;;;;;1874827;74;21062;-81
2022/04/27 17:05:53;;;;;;;3.45;1.55;;;25.70;62.60;;;;;;1886765;74;21163;-80
2022/04/27 17:11:30;;;;;;;2.85;1.25;;;24.90;63.70;;;;;;1969808;72;22244;-80
2022/04/27 17:14:48;;;;;;;2.83;1.40;;;24.20;64.80;;;;;;1912790;74;21149;-79
2022/04/27 17:20:52;;;;;;;2.37;1.22;;;24.00;65.10;;;;;;1976084;72;22111;-79
2022/04/27 17:24:07;;;;;;;4.85;2.00;;;24.10;65.40;;;;;;1907147;74;21505;-79
2022/04/27 17:27:41;;;;;;;2.83;1.47;;;24.20;65.40;;;;;;1905350;75;21064;-79
2022/04/27 17:30:53;;;;;;;2.95;1.40;;;24.00;65.40;;;;;;1905358;75;21146;-80
2022/04/27 17:34:14;;;;;;;1.92;1.00;;;23.80;65.10;;;;;;1922016;74;21552;-81
2022/04/27 17:37:12;;;;;;;2.47;1.55;;;23.60;65.10;;;;;;1919127;74;21055;-79
2022/04/27 17:40:14;;;;;;;3.02;1.35;;;23.60;65.10;;;;;;1907680;74;21098;-79
2022/04/27 17:43:15;;;;;;;1.65;1.40;;;23.40;65.30;;;;;;1911553;74;21095;-79
2022/04/27 17:46:11;;;;;;;1.80;1.20;;;22.90;65.50;;;;;;1929755;74;21178;-80
2022/04/27 17:49:07;;;;;;;2.50;1.40;;;22.50;66.40;;;;;;1883390;75;21051;-79
2022/04/27 17:52:08;;;;;;;2.10;1.00;;;22.20;67.00;;;;;;1905389;75;21167;-80
2022/04/27 17:55:11;;;;;;;2.30;1.40;;;21.90;66.90;;;;;;1924378;74;21035;-79
2022/04/27 18:01:01;;;;;;;1.80;1.12;;;21.50;68.00;;;;;;1947590;72;22428;-79
2022/04/27 18:04:25;;;;;;;2.90;1.22;;;21.50;68.10;;;;;;1917428;75;21168;-79
2022/04/27 18:10:25;;;;;;;2.65;1.10;;;21.30;68.60;;;;;;1956412;72;22139;-79
2022/04/27 18:13:45;;;;;;;1.87;1.05;;;21.10;69.20;;;;;;1918733;74;21055;-80
2022/04/27 18:17:13;;;;;;;1.75;1.20;;;20.80;70.30;;;;;;1895628;75;21083;-80
2022/04/27 18:20:23;;;;;;;1.77;1.37;;;20.70;70.70;;;;;;1898353;74;21066;-80
2022/04/27 18:23:42;;;;;;;3.60;1.55;;;20.60;71.50;;;;;;1901493;74;21105;-80
2022/04/27 18:27:10;;;;;;;1.95;1.47;;;20.60;71.50;;;;;;1880997;75;21087;-79
2022/04/27 18:30:13;;;;;;;1.52;1.10;;;20.50;71.90;;;;;;1911468;75;21172;-80
2022/04/27 18:33:09;;;;;;;1.60;1.30;;;20.50;71.90;;;;;;1909572;75;21169;-79
2022/04/27 18:50:06;;;;;;;3.22;1.77;;;20.00;77.90;;;;;;1930631;73;21058;-80
2022/04/27 18:53:33;;;;;;;2.33;1.82;;;20.00;79.70;;;;;;1909465;73;21125;-79
2022/04/27 18:57:00;;;;;;;1.92;1.50;;;19.80;81.30;;;;;;1917796;75;21158;-80
2022/04/27 18:59:59;;;;;;;2.08;1.67;;;19.70;82.60;;;;;;1917505;75;21257;-81
2022/04/27 19:06:09;;;;;;;4.05;1.77;;;19.50;85.20;;;;;;1942305;72;22117;-79
2022/04/27 19:09:53;;;;;;;1.62;1.47;;;19.40;86.30;;;;;;1911206;73;21130;-80
2022/04/27 19:13:47;;;;;;;5.05;2.20;;;19.40;88.10;;;;;;1855899;76;21120;-80
2022/04/27 19:17:21;;;;;;;;;;;19.30;88.90;;;;;;1868463;75;21130;-79
2022/04/27 19:27:51;;;;;;;2.92;2.37;;;19.10;92.10;;;;;;1877647;76;21054;-79
2022/04/27 19:30:52;;;;;;;4.50;2.20;;;19.00;93.30;;;;;;1911813;75;21380;-79
2022/04/27 19:36:36;;;;;;;2.95;1.90;;;19.00;95.20;;;;;;1938277;72;22259;-79
2022/04/27 19:40:01;;;;;;;2.85;2.20;;;19.00;95.80;;;;;;1904578;74;21121;-79
2022/04/27 19:52:11;;;;;;;2.42;2.15;;;18.70;98.80;;;;;;1956402;72;22216;-78
2022/04/27 19:55:41;;;;;;;3.50;2.58;;;18.70;99.50;;;;;;1931970;73;21140;-79
2022/04/27 20:01:34;;;;;;;2.70;2.45;;;18.70;99.90;;;;;;1945364;72;22150;-78
2022/04/27 20:04:59;;;;;;;3.27;2.35;;;18.60;99.90;;;;;;1922018;74;21156;-80
2022/04/27 20:11:05;;;;;;;4.00;2.62;;;18.60;99.90;;;;;;1941190;72;22150;-79
2022/04/27 20:16:55;;;;;;;5.87;2.83;;;18.10;99.90;;;;;;1954011;72;22153;-79
2022/04/27 20:20:19;;;;;;;4.65;2.47;;;18.00;99.90;;;;;;1891064;75;21144;-79
2022/04/27 20:23:44;;;;;;;4.42;2.30;;;17.90;99.90;;;;;;1906749;75;21136;-79
2022/04/27 20:26:52;;;;;;;2.95;2.37;;;17.80;99.90;;;;;;1884817;75;21165;-79
2022/04/27 20:35:28;;;;;;;4.03;2.35;;;17.40;99.90;;;;;;1928244;72;22200;-79
2022/04/27 20:38:41;;;;;;;3.62;2.50;;;17.40;99.90;;;;;;1885324;75;21578;-80
2022/04/27 20:41:51;;;;;;;2.98;1.75;;;17.40;99.90;;;;;;1874535;76;21055;-80
2022/04/27 20:44:45;;;;;;;3.12;2.25;;;17.30;99.90;;;;;;1919309;74;21060;-80
2022/04/27 20:47:56;;;;;;;2.80;2.27;;;17.20;99.90;;;;;;1906491;75;21235;-79
2022/04/27 20:50:49;;;;;;;3.00;2.40;;;17.20;99.90;;;;;;1905368;75;21059;-80
2022/04/27 20:56:20;;;;;;;3.15;2.27;;;17.10;99.90;;;;;;1941380;72;22231;-79
2022/04/27 21:02:10;;;;;;;3.58;2.77;;;16.60;99.90;;;;;;1935484;72;22221;-79
2022/04/27 21:05:21;;;;;;;3.42;2.20;;;16.70;99.90;;;;;;1915299;75;21107;-80
2022/04/27 21:33:54;;;;;;;9.45;6.00;;;16.30;99.90;;;;;;1910754;73;21172;-79
2022/04/27 21:37:04;;;;;;;11.28;5.33;;;16.30;99.90;;;;;;1906339;74;21137;-78
2022/04/27 21:40:15;;;;;;;2.65;2.30;;;16.30;99.90;;;;;;1914830;74;21090;-78
2022/04/27 21:43:08;;;;;;;4.75;2.33;;;16.30;99.90;;;;;;1922835;74;21109;-78
2022/04/27 21:46:18;;;;;;;2.83;1.87;;;16.10;99.90;;;;;;1925718;74;21053;-78
2022/04/27 21:49:11;;;;;;;3.22;2.20;;;16.00;99.90;;;;;;1917144;74;21063;-78
2022/04/27 21:52:03;;;;;;;5.28;2.20;;;15.80;99.90;;;;;;1925524;74;21548;-78
2022/04/27 21:54:54;;;;;;;3.67;2.58;;;15.60;99.90;;;;;;1910587;74;21120;-79
2022/04/27 21:57:47;;;;;;;5.45;2.47;;;15.50;99.90;;;;;;1925988;74;21155;-78
2022/04/27 22:07:00;;;;;;;6.00;2.60;;;15.40;99.90;;;;;;1925753;74;21495;-80
2022/04/27 22:09:52;;;;;;;4.65;2.52;;;15.50;99.90;;;;;;1924330;74;21086;-79
2022/04/27 22:12:44;;;;;;;5.00;2.47;;;15.60;99.90;;;;;;1920597;74;21102;-79
2022/04/27 22:15:36;;;;;;;4.42;2.67;;;15.60;99.90;;;;;;1925483;74;21057;-79
2022/04/27 22:18:29;;;;;;;3.17;2.17;;;15.50;99.90;;;;;;1925891;74;21109;-79
2022/04/27 22:21:23;;;;;;;2.47;2.27;;;15.40;99.90;;;;;;1907498;74;21496;-79
2022/04/27 22:24:14;;;;;;;4.10;2.25;;;15.40;99.90;;;;;;1918235;74;21121;-79
2022/04/27 22:27:09;;;;;;;3.10;2.37;;;15.40;99.90;;;;;;1924895;74;21082;-80
2022/04/27 22:30:00;;;;;;;5.53;2.87;;;15.40;99.90;;;;;;1919349;74;21092;-79
2022/04/27 22:32:54;;;;;;;5.45;2.95;;;15.40;99.90;;;;;;1910047;72;21065;-79
2022/04/27 22:35:46;;;;;;;3.62;2.52;;;15.40;99.90;;;;;;1922074;73;21053;-79
2022/04/27 22:41:21;;;;;;;2.77;2.40;;;15.30;99.90;;;;;;1936248;72;22227;-79
2022/04/27 22:44:31;;;;;;;3.15;2.47;;;15.30;99.90;;;;;;1899993;75;21074;-80
2022/04/27 22:47:41;;;;;;;3.33;2.42;;;15.30;99.90;;;;;;1896699;75;21073;-79
2022/04/27 22:50:32;;;;;;;3.00;1.95;;;15.30;99.90;;;;;;1908907;75;21702;-79
2022/04/27 22:53:42;;;;;;;3.80;2.15;;;15.40;99.90;;;;;;1884665;75;21137;-79
2022/04/27 22:56:34;;;;;;;3.77;2.50;;;15.30;99.90;;;;;;1911333;75;21672;-79
2022/04/27 22:59:25;;;;;;;5.00;2.02;;;15.20;99.90;;;;;;1883874;75;21553;-79
2022/04/27 23:02:17;;;;;;;3.95;2.40;;;15.20;99.90;;;;;;1907027;75;21058;-79
2022/04/27 23:05:10;;;;;;;2.52;2.08;;;15.10;99.90;;;;;;1904568;75;22348;-78
2022/04/27 23:13:53;;;;;;;3.55;2.20;;;14.90;99.90;;;;;;1949864;72;22217;-78
2022/04/27 23:17:03;;;;;;;3.50;2.02;;;14.90;99.90;;;;;;1901280;75;21052;-77
2022/04/27 23:20:13;;;;;;;2.95;2.00;;;14.90;99.90;;;;;;1900531;75;21087;-77
2022/04/27 23:23:05;;;;;;;3.20;1.90;;;14.90;99.90;;;;;;1887441;75;21110;-79
2022/04/27 23:26:15;;;;;;;4.50;1.72;;;14.90;99.90;;;;;;1887092;75;21092;-78
2022/04/27 23:29:07;;;;;;;2.05;1.60;;;14.90;99.90;;;;;;1888799;75;21163;-78
2022/04/27 23:31:59;;;;;;;4.28;1.90;;;14.90;99.90;;;;;;1903749;75;21142;-78
2022/04/27 23:34:51;;;;;;;4.87;2.10;;;14.90;99.90;;;;;;1890999;75;21142;-78
2022/04/27 23:37:43;;;;;;;3.25;1.95;;;14.80;99.90;;;;;;1881274;75;21144;-79
2022/04/27 23:40:35;;;;;;;3.00;1.92;;;14.70;99.90;;;;;;1890324;75;21047;-79
2022/04/27 23:43:27;;;;;;;2.90;1.77;;;14.60;99.90;;;;;;1893585;75;21051;-79
2022/04/27 23:46:19;;;;;;;3.12;1.85;;;14.50;99.90;;;;;;1883543;75;21102;-78
2022/04/27 23:49:11;;;;;;;5.20;2.02;;;14.50;99.90;;;;;;1891695;75;21172;-79
2022/04/27 23:52:02;;;;;;;3.25;2.00;;;14.50;99.90;;;;;;1903515;75;21100;-78
2022/04/27 23:57:34;;;;;;;4.17;2.20;;;14.50;99.90;;;;;;1958892;72;22425;-78
